Tylersport, Pennsylvania
Current Conditions -  °F | °C
As of 2:15 AM on Thursday 18 Dec 2014 (Local Time) from KUKT Reporting Station
Overcast Overcast  
Wind Chill: 29°   Ceiling: 3800
Heat Index: 36°   Visibility: 10mi
Dew Point: 23°   Wind: 8mph
Humidity: 60%   Direction: 280°W
Pressure: 29.98"   Gusts: 20mph
Location:  40.35°N, 75.38°W
Report Text: KUKT 180715Z AUTO 28007G17KT 10SM OVC038 02/M05 A2998 RMK AO1
Loading
Personal Weather Stations






























Interactive Weather Map New forecast layout! Learn more

10-Day Weather Forecast

Advertisements
Track Severe Weather on mobile